Time;durP1;ratioP1;P1;durP2;ratioP2;P2;SDS_P1;SDS_P2;PMS_P1;PMS_P2;Temp;Humidity;BMP_temperature;BMP_pressure;BME280_temperature;BME280_humidity;BME280_pressure;Samples;Min_cycle;Max_cycle;Signal;HPM_P1;HPM_P2
2022/04/02 00:00:17;;;;;;;;;;;;;;;;;;5012624;28;20062;-69
2022/04/02 00:02:43;;;;;;;;;;;;;;;;;;5017215;28;19922;-69
2022/04/02 00:05:10;;;;;;;;;;;;;;;;;;5003672;28;19928;-69
2022/04/02 00:07:36;;;;;;;;;;;;;;;;;;5017639;28;19924;-69
2022/04/02 00:10:02;;;;;;;;;;;;;;;;;;5015755;28;19972;-69
2022/04/02 00:12:28;;;;;;;;;;;;;;;;;;5013740;28;20474;-69
2022/04/02 00:14:53;;;;;;;;;;;;;;;;;;5015307;28;19924;-69
2022/04/02 00:17:20;;;;;;;;;;;;;;;;;;5005875;28;20009;-69
2022/04/02 00:19:46;;;;;;;;;;;;;;;;;;5000471;28;20395;-69
2022/04/02 00:22:12;;;;;;;;;;;;;;;;;;4997092;28;19924;-69
2022/04/02 00:24:38;;;;;;;;;;;;;;;;;;5013465;28;19917;-69
2022/04/02 00:27:04;;;;;;;;;;;;;;;;;;5006937;28;20386;-69
2022/04/02 00:29:30;;;;;;;;;;;;;;;;;;5013450;28;19936;-69
2022/04/02 00:31:56;;;;;;;;;;;;;;;;;;5000021;28;19921;-69
2022/04/02 00:34:22;;;;;;;;;;;;;;;;;;5011652;28;19974;-69
2022/04/02 00:36:48;;;;;;;;;;;;;;;;;;5016689;28;19924;-69
2022/04/02 00:39:14;;;;;;;;;;;;;;;;;;4991428;28;20209;-69
2022/04/02 00:41:40;;;;;;;;;;;;;;;;;;5011583;28;19921;-69
2022/04/02 00:44:06;;;;;;;;;;;;;;;;;;5011793;28;20332;-70
2022/04/02 00:46:32;;;;;;;;;;;;;;;;;;4994222;28;19916;-69
2022/04/02 00:48:58;;;;;;;;;;;;;;;;;;4988491;28;19924;-69
2022/04/02 00:51:24;;;;;;;;;;;;;;;;;;5012618;28;19921;-69
2022/04/02 00:53:50;;;;;;;;;;;;;;;;;;5012881;28;20303;-69
2022/04/02 00:56:16;;;;;;;;;;;;;;;;;;5011476;28;19917;-69
2022/04/02 00:58:42;;;;;;;;;;;;;;;;;;4998853;28;19927;-69
2022/04/02 01:01:08;;;;;;;;;;;;;;;;;;5013255;28;19921;-69
2022/04/02 01:03:34;;;;;;;;;;;;;;;;;;4999947;28;19964;-69
2022/04/02 01:06:00;;;;;;;;;;;;;;;;;;5011283;28;19928;-69
2022/04/02 01:08:26;;;;;;;;;;;;;;;;;;5005008;28;19959;-69
2022/04/02 01:10:52;;;;;;;;;;;;;;;;;;5017175;28;19971;-69
2022/04/02 01:13:18;;;;;;;;;;;;;;;;;;5011146;28;20960;-69
2022/04/02 01:15:45;;;;;;;;;;;;;;;;;;5013912;28;19921;-70
2022/04/02 01:18:13;;;;;;;;;;;;;;;;;;5012519;28;21590;-69
2022/04/02 01:20:39;;;;;;;;;;;;;;;;;;5011057;28;19921;-69
2022/04/02 01:23:05;;;;;;;;;;;;;;;;;;5013400;28;19986;-69
2022/04/02 01:25:35;;;;;;;;;;;;;;;;;;5001076;28;20032;-69
2022/04/02 01:28:01;;;;;;;;;;;;;;;;;;5012710;28;20055;-69
2022/04/02 01:30:27;;;;;;;;;;;;;;;;;;5017174;28;20458;-69
2022/04/02 01:32:53;;;;;;;;;;;;;;;;;;5000185;28;20357;-69
2022/04/02 01:35:21;;;;;;;;;;;;;;;;;;4996484;28;19927;-68
2022/04/02 01:37:47;;;;;;;;;;;;;;;;;;5014192;28;20375;-71
2022/04/02 01:40:13;;;;;;;;;;;;;;;;;;5012727;28;20237;-70
2022/04/02 01:42:39;;;;;;;;;;;;;;;;;;5017335;28;20372;-70
2022/04/02 01:45:05;;;;;;;;;;;;;;;;;;4995621;28;19924;-70
2022/04/02 01:47:31;;;;;;;;;;;;;;;;;;5012346;28;19921;-71
2022/04/02 01:49:57;;;;;;;;;;;;;;;;;;5020899;28;19944;-70
2022/04/02 01:52:23;;;;;;;;;;;;;;;;;;5013252;28;20554;-70
2022/04/02 01:54:49;;;;;;;;;;;;;;;;;;5018514;28;20247;-70
2022/04/02 01:57:15;;;;;;;;;;;;;;;;;;4997633;28;20039;-70
2022/04/02 01:59:44;;;;;;;;;;;;;;;;;;5019263;28;19917;-71
2022/04/02 02:02:10;;;;;;;;;;;;;;;;;;5014892;28;20003;-70
2022/04/02 02:04:36;;;;;;;;;;;;;;;;;;5016350;28;19923;-70
2022/04/02 02:07:02;;;;;;;;;;;;;;;;;;5014444;28;19916;-71
2022/04/02 02:09:28;;;;;;;;;;;;;;;;;;5015434;28;19928;-70
2022/04/02 02:11:54;;;;;;;;;;;;;;;;;;4999815;28;19932;-70
2022/04/02 02:14:20;;;;;;;;;;;;;;;;;;5013330;28;20027;-70
2022/04/02 02:16:46;;;;;;;;;;;;;;;;;;5013149;28;20028;-70
2022/04/02 02:19:12;;;;;;;;;;;;;;;;;;4995256;28;19925;-70
2022/04/02 02:21:39;;;;;;;;;;;;;;;;;;5017002;28;20461;-69
2022/04/02 02:24:05;;;;;;;;;;;;;;;;;;4997233;28;19927;-69
2022/04/02 02:26:31;;;;;;;;;;;;;;;;;;5020974;28;20032;-69
2022/04/02 02:28:57;;;;;;;;;;;;;;;;;;5016919;28;21257;-71
2022/04/02 02:31:23;;;;;;;;;;;;;;;;;;5016907;28;19936;-71
2022/04/02 02:36:34;;;;;;;;;;;;;;;;;;5011988;28;20303;-70
2022/04/02 02:39:00;;;;;;;;;;;;;;;;;;4999188;28;19927;-71
2022/04/02 02:41:26;;;;;;;;;;;;;;;;;;5020771;28;19965;-71
2022/04/02 02:43:52;;;;;;;;;;;;;;;;;;4998546;28;19916;-70
2022/04/02 02:46:18;;;;;;;;;;;;;;;;;;5018720;28;20370;-70
2022/04/02 02:48:44;;;;;;;;;;;;;;;;;;5004024;28;19944;-70
2022/04/02 02:51:10;;;;;;;;;;;;;;;;;;5001630;28;19925;-70
2022/04/02 02:53:36;;;;;;;;;;;;;;;;;;5019624;28;19924;-70
2022/04/02 02:56:02;;;;;;;;;;;;;;;;;;5000801;28;20571;-70
2022/04/02 02:58:28;;;;;;;;;;;;;;;;;;5017202;28;19917;-70
2022/04/02 03:00:54;;;;;;;;;;;;;;;;;;5006764;28;19928;-70
2022/04/02 03:03:22;;;;;;;;;;;;;;;;;;5016276;28;20047;-72
2022/04/02 03:05:48;;;;;;;;;;;;;;;;;;5021848;28;19975;-70
2022/04/02 03:08:14;;;;;;;;;;;;;;;;;;5000697;28;19925;-70
2022/04/02 03:10:40;;;;;;;;;;;;;;;;;;5016398;28;19967;-70
2022/04/02 03:13:06;;;;;;;;;;;;;;;;;;5013221;28;20020;-70
2022/04/02 03:15:32;;;;;;;;;;;;;;;;;;5015985;28;20036;-70
2022/04/02 03:17:58;;;;;;;;;;;;;;;;;;5018745;28;20414;-70
2022/04/02 03:20:24;;;;;;;;;;;;;;;;;;5005503;28;20276;-70
2022/04/02 03:22:51;;;;;;;;;;;;;;;;;;5019418;28;20003;-69
2022/04/02 03:25:17;;;;;;;;;;;;;;;;;;5004122;28;21931;-70
2022/04/02 03:27:43;;;;;;;;;;;;;;;;;;5018767;28;20091;-69
2022/04/02 03:30:09;;;;;;;;;;;;;;;;;;5015934;28;19943;-69
2022/04/02 03:32:35;;;;;;;;;;;;;;;;;;5017464;28;19921;-69
2022/04/02 03:35:02;;;;;;;;;;;;;;;;;;4999100;28;19917;-69
2022/04/02 03:37:28;;;;;;;;;;;;;;;;;;5006081;28;19916;-69
2022/04/02 03:39:54;;;;;;;;;;;;;;;;;;5023763;28;20709;-69
2022/04/02 03:42:20;;;;;;;;;;;;;;;;;;5017312;28;20416;-69
2022/04/02 03:44:46;;;;;;;;;;;;;;;;;;5017355;28;19970;-69
2022/04/02 03:47:12;;;;;;;;;;;;;;;;;;5016354;28;20025;-69
2022/04/02 03:49:38;;;;;;;;;;;;;;;;;;5015120;28;19945;-69
2022/04/02 03:52:04;;;;;;;;;;;;;;;;;;5016298;28;19916;-69
2022/04/02 03:54:30;;;;;;;;;;;;;;;;;;5002973;28;19928;-69
2022/04/02 03:56:56;;;;;;;;;;;;;;;;;;5022508;28;20003;-69
2022/04/02 03:59:22;;;;;;;;;;;;;;;;;;5019303;28;20417;-69
2022/04/02 04:01:48;;;;;;;;;;;;;;;;;;5019678;28;19920;-69
2022/04/02 04:04:14;;;;;;;;;;;;;;;;;;5017597;28;19977;-69
2022/04/02 04:06:41;;;;;;;;;;;;;;;;;;5003934;28;20354;-69
2022/04/02 04:09:07;;;;;;;;;;;;;;;;;;5017802;28;19942;-69
2022/04/02 04:11:33;;;;;;;;;;;;;;;;;;5020143;28;20382;-69
2022/04/02 04:13:59;;;;;;;;;;;;;;;;;;5017192;28;20825;-69
2022/04/02 04:16:25;;;;;;;;;;;;;;;;;;5019747;28;20446;-68
2022/04/02 04:18:51;;;;;;;;;;;;;;;;;;5016690;28;19982;-69
2022/04/02 04:21:17;;;;;;;;;;;;;;;;;;5019183;28;20393;-69
2022/04/02 04:23:43;;;;;;;;;;;;;;;;;;5003637;28;19924;-70
2022/04/02 04:26:09;;;;;;;;;;;;;;;;;;5000250;28;19939;-69
2022/04/02 04:28:35;;;;;;;;;;;;;;;;;;5018477;28;19971;-69
2022/04/02 04:31:01;;;;;;;;;;;;;;;;;;5015259;28;19929;-69
2022/04/02 04:33:27;;;;;;;;;;;;;;;;;;5016422;28;20708;-69
2022/04/02 04:35:53;;;;;;;;;;;;;;;;;;5020686;28;19917;-69
2022/04/02 04:38:19;;;;;;;;;;;;;;;;;;5015114;28;20599;-69
2022/04/02 04:40:45;;;;;;;;;;;;;;;;;;5003590;28;19917;-69
2022/04/02 04:43:10;;;;;;;;;;;;;;;;;;5016730;28;19917;-68
2022/04/02 04:45:37;;;;;;;;;;;;;;;;;;5004139;28;20375;-69
2022/04/02 04:48:03;;;;;;;;;;;;;;;;;;5014042;28;20329;-70
2022/04/02 04:50:29;;;;;;;;;;;;;;;;;;5018355;28;19973;-68
2022/04/02 04:52:55;;;;;;;;;;;;;;;;;;5003163;28;19939;-68
2022/04/02 04:55:21;;;;;;;;;;;;;;;;;;5013611;28;20371;-68
2022/04/02 04:57:47;;;;;;;;;;;;;;;;;;5004927;28;20320;-68
2022/04/02 05:00:15;;;;;;;;;;;;;;;;;;5012582;28;20062;-69
2022/04/02 05:02:44;;;;;;;;;;;;;;;;;;5000815;28;19958;-68
2022/04/02 05:05:11;;;;;;;;;;;;;;;;;;5000659;28;20448;-71
2022/04/02 05:07:37;;;;;;;;;;;;;;;;;;5015652;28;19917;-69
2022/04/02 05:10:03;;;;;;;;;;;;;;;;;;5015185;28;19995;-71
2022/04/02 05:12:29;;;;;;;;;;;;;;;;;;5016774;28;19971;-68
2022/04/02 05:14:55;;;;;;;;;;;;;;;;;;5018901;28;20368;-69
2022/04/02 05:17:21;;;;;;;;;;;;;;;;;;5013952;28;20020;-69
2022/04/02 05:19:48;;;;;;;;;;;;;;;;;;5005265;28;20649;-69
2022/04/02 05:22:14;;;;;;;;;;;;;;;;;;4997711;28;19970;-69
2022/04/02 05:24:39;;;;;;;;;;;;;;;;;;5018719;28;19943;-69
2022/04/02 05:27:05;;;;;;;;;;;;;;;;;;4998027;28;20000;-70
2022/04/02 05:29:31;;;;;;;;;;;;;;;;;;5014184;28;20450;-69
2022/04/02 05:31:57;;;;;;;;;;;;;;;;;;5001978;28;20224;-69
2022/04/02 05:34:23;;;;;;;;;;;;;;;;;;5013395;28;19916;-69
2022/04/02 05:36:49;;;;;;;;;;;;;;;;;;5018569;28;19999;-69
2022/04/02 05:39:15;;;;;;;;;;;;;;;;;;5015856;28;19917;-69
2022/04/02 05:41:41;;;;;;;;;;;;;;;;;;4997514;28;19928;-69
2022/04/02 05:44:07;;;;;;;;;;;;;;;;;;5012587;28;19916;-69
2022/04/02 05:46:33;;;;;;;;;;;;;;;;;;5016796;28;20441;-69
2022/04/02 05:48:59;;;;;;;;;;;;;;;;;;5011288;28;20103;-69
2022/04/02 05:51:25;;;;;;;;;;;;;;;;;;5000977;28;19921;-69
2022/04/02 05:53:52;;;;;;;;;;;;;;;;;;5015521;28;19948;-69
2022/04/02 05:56:18;;;;;;;;;;;;;;;;;;5013142;28;21598;-68
2022/04/02 05:58:44;;;;;;;;;;;;;;;;;;5002179;28;19916;-70
2022/04/02 06:01:10;;;;;;;;;;;;;;;;;;4997161;28;20334;-69
2022/04/02 06:03:36;;;;;;;;;;;;;;;;;;5001519;28;19964;-70
2022/04/02 06:06:02;;;;;;;;;;;;;;;;;;5014463;28;19923;-69
2022/04/02 06:08:28;;;;;;;;;;;;;;;;;;5013531;28;19920;-70
2022/04/02 06:10:54;;;;;;;;;;;;;;;;;;5015998;28;20532;-70
2022/04/02 06:13:20;;;;;;;;;;;;;;;;;;5016067;28;20039;-70
2022/04/02 06:15:46;;;;;;;;;;;;;;;;;;4997525;28;20337;-70
2022/04/02 06:18:17;;;;;;;;;;;;;;;;;;4992063;28;19925;-70
2022/04/02 06:20:43;;;;;;;;;;;;;;;;;;5001708;28;20371;-70
2022/04/02 06:23:09;;;;;;;;;;;;;;;;;;4993645;28;20653;-70
2022/04/02 06:25:35;;;;;;;;;;;;;;;;;;4999920;28;20374;-70
2022/04/02 06:28:01;;;;;;;;;;;;;;;;;;4998127;28;19925;-70
2022/04/02 06:30:27;;;;;;;;;;;;;;;;;;4997686;28;20007;-70
2022/04/02 06:32:53;;;;;;;;;;;;;;;;;;4996717;28;19926;-70
2022/04/02 06:35:19;;;;;;;;;;;;;;;;;;4992141;28;20696;-70
2022/04/02 06:37:45;;;;;;;;;;;;;;;;;;4990019;28;20329;-70
2022/04/02 06:40:11;;;;;;;;;;;;;;;;;;4996763;28;19917;-70
2022/04/02 06:42:37;;;;;;;;;;;;;;;;;;4997868;28;19971;-70
2022/04/02 06:45:03;;;;;;;;;;;;;;;;;;4986702;28;20048;-70
2022/04/02 06:47:29;;;;;;;;;;;;;;;;;;4994879;28;19977;-69
2022/04/02 06:49:55;;;;;;;;;;;;;;;;;;4991745;28;19927;-69
2022/04/02 06:52:21;;;;;;;;;;;;;;;;;;4993783;28;20125;-69
2022/04/02 06:54:47;;;;;;;;;;;;;;;;;;4990015;28;19921;-69
2022/04/02 06:57:13;;;;;;;;;;;;;;;;;;4990375;28;19924;-70
2022/04/02 06:59:41;;;;;;;;;;;;;;;;;;4997486;28;20173;-69
2022/04/02 07:02:07;;;;;;;;;;;;;;;;;;4991124;28;20004;-69
2022/04/02 07:04:33;;;;;;;;;;;;;;;;;;4981972;28;20012;-70
2022/04/02 07:06:59;;;;;;;;;;;;;;;;;;5004424;28;19917;-69
2022/04/02 07:09:25;;;;;;;;;;;;;;;;;;4996672;28;20012;-69
2022/04/02 07:11:51;;;;;;;;;;;;;;;;;;4991269;28;19976;-69
2022/04/02 07:14:17;;;;;;;;;;;;;;;;;;4982994;28;20035;-69
2022/04/02 07:16:43;;;;;;;;;;;;;;;;;;4989277;28;20101;-69
2022/04/02 07:19:09;;;;;;;;;;;;;;;;;;4991259;28;20618;-69
2022/04/02 07:21:35;;;;;;;;;;;;;;;;;;5005263;28;19916;-69
2022/04/02 07:24:01;;;;;;;;;;;;;;;;;;4999566;28;20770;-69
2022/04/02 07:26:27;;;;;;;;;;;;;;;;;;5009183;28;20325;-69
2022/04/02 07:28:53;;;;;;;;;;;;;;;;;;5007928;28;19917;-69
2022/04/02 07:31:19;;;;;;;;;;;;;;;;;;5001924;28;19932;-69
2022/04/02 07:33:45;;;;;;;;;;;;;;;;;;5009539;28;19967;-69
2022/04/02 07:36:11;;;;;;;;;;;;;;;;;;5001464;28;19925;-69
2022/04/02 07:38:38;;;;;;;;;;;;;;;;;;5005764;28;19924;-70
2022/04/02 07:41:04;;;;;;;;;;;;;;;;;;5003614;28;19982;-71
2022/04/02 07:43:30;;;;;;;;;;;;;;;;;;5005979;28;20450;-71
2022/04/02 07:45:56;;;;;;;;;;;;;;;;;;5011760;28;19917;-69
2022/04/02 07:48:22;;;;;;;;;;;;;;;;;;5007002;28;21063;-69
2022/04/02 07:50:48;;;;;;;;;;;;;;;;;;4999424;28;20438;-69
2022/04/02 07:53:14;;;;;;;;;;;;;;;;;;5009272;28;19916;-69
2022/04/02 07:55:40;;;;;;;;;;;;;;;;;;5018225;28;19940;-69
2022/04/02 07:58:06;;;;;;;;;;;;;;;;;;5003675;28;19917;-70
2022/04/02 08:00:32;;;;;;;;;;;;;;;;;;5000402;28;19923;-70
2022/04/02 08:02:58;;;;;;;;;;;;;;;;;;5010364;28;19921;-70
2022/04/02 08:05:24;;;;;;;;;;;;;;;;;;5010265;28;19924;-70
2022/04/02 08:07:52;;;;;;;;;;;;;;;;;;5010630;28;19917;-70
2022/04/02 08:10:18;;;;;;;;;;;;;;;;;;5007378;28;19924;-70
2022/04/02 08:12:44;;;;;;;;;;;;;;;;;;4999463;28;19917;-71
2022/04/02 08:15:11;;;;;;;;;;;;;;;;;;5004971;28;19995;-70
2022/04/02 08:17:37;;;;;;;;;;;;;;;;;;5009587;28;20474;-70
2022/04/02 08:20:03;;;;;;;;;;;;;;;;;;5004681;28;19987;-70
2022/04/02 08:22:29;;;;;;;;;;;;;;;;;;5006942;28;19917;-70
2022/04/02 08:24:55;;;;;;;;;;;;;;;;;;5011219;28;20481;-70
2022/04/02 08:27:21;;;;;;;;;;;;;;;;;;5005586;28;19916;-70
2022/04/02 08:29:47;;;;;;;;;;;;;;;;;;5011319;28;19932;-70
2022/04/02 08:32:13;;;;;;;;;;;;;;;;;;5001934;28;20492;-69
2022/04/02 08:34:39;;;;;;;;;;;;;;;;;;4993112;28;19967;-70
2022/04/02 08:37:05;;;;;;;;;;;;;;;;;;5004259;28;20336;-69
2022/04/02 08:39:31;;;;;;;;;;;;;;;;;;5008956;28;19920;-70
2022/04/02 08:41:59;;;;;;;;;;;;;;;;;;5008366;28;20414;-70
2022/04/02 08:44:25;;;;;;;;;;;;;;;;;;5009405;28;19925;-70
2022/04/02 08:46:51;;;;;;;;;;;;;;;;;;5008881;28;19991;-69
2022/04/02 08:49:17;;;;;;;;;;;;;;;;;;5006378;28;19917;-70
2022/04/02 08:51:44;;;;;;;;;;;;;;;;;;5008800;28;19960;-70
2022/04/02 08:54:10;;;;;;;;;;;;;;;;;;5005071;28;19917;-70
2022/04/02 08:56:36;;;;;;;;;;;;;;;;;;4999002;28;19917;-69
2022/04/02 08:59:04;;;;;;;;;;;;;;;;;;5018226;28;20604;-70
2022/04/02 09:01:31;;;;;;;;;;;;;;;;;;5008812;28;19967;-69
2022/04/02 09:03:57;;;;;;;;;;;;;;;;;;4991329;28;20674;-70
2022/04/02 09:06:23;;;;;;;;;;;;;;;;;;5000902;28;20488;-69
2022/04/02 09:08:49;;;;;;;;;;;;;;;;;;5009608;28;21413;-70
2022/04/02 09:11:15;;;;;;;;;;;;;;;;;;5004101;28;20169;-70
2022/04/02 09:13:41;;;;;;;;;;;;;;;;;;5010070;28;20165;-70
2022/04/02 09:16:08;;;;;;;;;;;;;;;;;;5005836;28;20478;-69
2022/04/02 09:18:34;;;;;;;;;;;;;;;;;;5008417;28;19924;-69
2022/04/02 09:21:00;;;;;;;;;;;;;;;;;;5007587;28;19917;-69
2022/04/02 09:23:26;;;;;;;;;;;;;;;;;;5008366;28;19944;-70
2022/04/02 09:25:52;;;;;;;;;;;;;;;;;;5007080;28;20371;-70
2022/04/02 09:28:18;;;;;;;;;;;;;;;;;;5004533;28;20273;-70
2022/04/02 09:30:44;;;;;;;;;;;;;;;;;;5007624;28;20358;-70
2022/04/02 09:33:10;;;;;;;;;;;;;;;;;;5004528;28;19953;-70
2022/04/02 09:35:36;;;;;;;;;;;;;;;;;;5007051;28;20298;-70
2022/04/02 09:38:02;;;;;;;;;;;;;;;;;;5006658;28;20004;-70
2022/04/02 09:40:28;;;;;;;;;;;;;;;;;;4988994;28;20703;-70
2022/04/02 09:42:54;;;;;;;;;;;;;;;;;;5007037;28;19917;-70
2022/04/02 09:45:20;;;;;;;;;;;;;;;;;;5006749;28;20348;-70
2022/04/02 09:47:46;;;;;;;;;;;;;;;;;;5009405;28;20201;-70
2022/04/02 09:50:12;;;;;;;;;;;;;;;;;;5007146;28;20036;-70
2022/04/02 09:52:38;;;;;;;;;;;;;;;;;;4995220;28;19927;-70
2022/04/02 09:55:04;;;;;;;;;;;;;;;;;;5009893;28;19921;-70
2022/04/02 09:57:30;;;;;;;;;;;;;;;;;;5012658;28;19960;-70
2022/04/02 09:59:56;;;;;;;;;;;;;;;;;;5007994;28;20029;-70
2022/04/02 10:02:22;;;;;;;;;;;;;;;;;;4999985;28;19978;-70
2022/04/02 10:04:48;;;;;;;;;;;;;;;;;;5015174;28;19916;-70
2022/04/02 10:07:14;;;;;;;;;;;;;;;;;;5006483;28;19917;-70
2022/04/02 10:09:40;;;;;;;;;;;;;;;;;;5011965;28;20395;-70
2022/04/02 10:12:06;;;;;;;;;;;;;;;;;;4996070;28;19916;-70
2022/04/02 10:14:34;;;;;;;;;;;;;;;;;;5011686;28;19921;-69
2022/04/02 10:17:00;;;;;;;;;;;;;;;;;;4994419;28;19932;-70
2022/04/02 10:19:26;;;;;;;;;;;;;;;;;;5009078;28;19917;-70
2022/04/02 10:21:52;;;;;;;;;;;;;;;;;;5009312;28;20386;-70
2022/04/02 10:24:18;;;;;;;;;;;;;;;;;;5004637;28;19924;-70
2022/04/02 10:26:45;;;;;;;;;;;;;;;;;;5008662;28;20029;-70
2022/04/02 10:29:11;;;;;;;;;;;;;;;;;;4998752;28;20381;-70
2022/04/02 10:31:37;;;;;;;;;;;;;;;;;;5006315;28;19963;-70
2022/04/02 10:34:03;;;;;;;;;;;;;;;;;;4989420;28;20004;-69
2022/04/02 10:36:29;;;;;;;;;;;;;;;;;;4998332;28;20340;-69
2022/04/02 10:38:55;;;;;;;;;;;;;;;;;;5017028;28;19917;-70
2022/04/02 10:41:21;;;;;;;;;;;;;;;;;;5012288;28;20396;-70
2022/04/02 10:43:47;;;;;;;;;;;;;;;;;;5017235;28;19921;-70
2022/04/02 10:46:13;;;;;;;;;;;;;;;;;;5012816;28;19923;-70
2022/04/02 10:48:39;;;;;;;;;;;;;;;;;;5015647;28;19916;-70
2022/04/02 10:51:05;;;;;;;;;;;;;;;;;;5007735;28;19932;-69
2022/04/02 10:53:31;;;;;;;;;;;;;;;;;;5012931;28;19964;-69
2022/04/02 10:55:59;;;;;;;;;;;;;;;;;;4994626;28;20683;-69
2022/04/02 10:58:25;;;;;;;;;;;;;;;;;;4996491;28;20389;-70
2022/04/02 11:00:51;;;;;;;;;;;;;;;;;;5000109;28;20379;-70
2022/04/02 11:03:17;;;;;;;;;;;;;;;;;;5011577;28;19928;-70
2022/04/02 11:05:43;;;;;;;;;;;;;;;;;;5020883;28;19921;-70
2022/04/02 11:08:09;;;;;;;;;;;;;;;;;;5011925;28;19923;-69
2022/04/02 11:10:35;;;;;;;;;;;;;;;;;;5020149;28;19920;-71
2022/04/02 11:13:01;;;;;;;;;;;;;;;;;;5014375;28;19927;-69
2022/04/02 11:15:27;;;;;;;;;;;;;;;;;;5021290;28;19917;-69
2022/04/02 11:17:53;;;;;;;;;;;;;;;;;;5000236;28;20378;-69
2022/04/02 11:20:20;;;;;;;;;;;;;;;;;;5015562;28;20595;-69
2022/04/02 11:22:46;;;;;;;;;;;;;;;;;;5020675;28;19917;-70
2022/04/02 11:25:13;;;;;;;;;;;;;;;;;;5016385;28;19939;-69
2022/04/02 11:27:39;;;;;;;;;;;;;;;;;;5000547;28;20450;-69
2022/04/02 11:30:05;;;;;;;;;;;;;;;;;;5017427;28;20572;-70
2022/04/02 11:32:31;;;;;;;;;;;;;;;;;;5001578;28;19931;-70
2022/04/02 11:34:57;;;;;;;;;;;;;;;;;;4999056;28;19920;-70
2022/04/02 11:37:23;;;;;;;;;;;;;;;;;;5017603;28;20703;-70
2022/04/02 11:39:49;;;;;;;;;;;;;;;;;;5017439;28;19917;-70
2022/04/02 11:42:15;;;;;;;;;;;;;;;;;;5015267;28;19917;-70
2022/04/02 11:44:41;;;;;;;;;;;;;;;;;;5018873;28;20323;-69
2022/04/02 11:47:07;;;;;;;;;;;;;;;;;;5016029;28;19916;-70
2022/04/02 11:49:33;;;;;;;;;;;;;;;;;;5006804;28;19916;-70
2022/04/02 11:51:59;;;;;;;;;;;;;;;;;;4999313;28;19943;-70
2022/04/02 11:54:25;;;;;;;;;;;;;;;;;;5020557;28;19916;-70
2022/04/02 11:56:51;;;;;;;;;;;;;;;;;;5008253;28;20289;-70
2022/04/02 11:59:17;;;;;;;;;;;;;;;;;;5018380;28;19920;-70
2022/04/02 12:01:43;;;;;;;;;;;;;;;;;;5004858;28;20276;-70
2022/04/02 12:04:09;;;;;;;;;;;;;;;;;;5012570;28;19928;-70
2022/04/02 12:06:35;;;;;;;;;;;;;;;;;;5019688;28;19959;-69
2022/04/02 12:09:01;;;;;;;;;;;;;;;;;;5013808;28;20008;-69
2022/04/02 12:11:28;;;;;;;;;;;;;;;;;;5019286;28;19921;-69
2022/04/02 12:13:55;;;;;;;;;;;;;;;;;;5016376;28;20363;-69
2022/04/02 12:16:21;;;;;;;;;;;;;;;;;;5013078;28;19923;-70
2022/04/02 12:18:47;;;;;;;;;;;;;;;;;;4997820;28;19929;-70
2022/04/02 12:21:13;;;;;;;;;;;;;;;;;;4992371;28;19917;-70
2022/04/02 12:23:39;;;;;;;;;;;;;;;;;;4998070;28;19917;-70
2022/04/02 12:26:05;;;;;;;;;;;;;;;;;;4993092;28;20595;-70
2022/04/02 12:28:33;;;;;;;;;;;;;;;;;;4998447;28;19917;-70
2022/04/02 12:30:58;;;;;;;;;;;;;;;;;;4991422;28;19925;-70
2022/04/02 12:33:24;;;;;;;;;;;;;;;;;;4998678;28;19921;-70
2022/04/02 12:35:50;;;;;;;;;;;;;;;;;;4993515;28;19917;-70
2022/04/02 12:38:16;;;;;;;;;;;;;;;;;;4993873;28;20002;-70
2022/04/02 12:40:42;;;;;;;;;;;;;;;;;;4997752;28;19917;-70
2022/04/02 12:43:09;;;;;;;;;;;;;;;;;;4992024;28;19924;-70
2022/04/02 12:45:35;;;;;;;;;;;;;;;;;;4995491;28;20320;-70
2022/04/02 12:48:01;;;;;;;;;;;;;;;;;;4987145;28;19921;-70
2022/04/02 12:50:27;;;;;;;;;;;;;;;;;;4993751;28;20446;-70
2022/04/02 12:52:53;;;;;;;;;;;;;;;;;;4991628;28;19917;-70
2022/04/02 12:55:19;;;;;;;;;;;;;;;;;;4991917;28;20505;-70
2022/04/02 12:57:45;;;;;;;;;;;;;;;;;;4989856;28;19921;-70
2022/04/02 13:00:11;;;;;;;;;;;;;;;;;;4991806;28;20001;-70
2022/04/02 13:02:37;;;;;;;;;;;;;;;;;;5012451;28;19921;-71
2022/04/02 13:05:03;;;;;;;;;;;;;;;;;;4989193;28;19960;-70
2022/04/02 13:07:29;;;;;;;;;;;;;;;;;;4995843;28;20368;-70
2022/04/02 13:09:56;;;;;;;;;;;;;;;;;;4996950;28;20359;-70
2022/04/02 13:12:22;;;;;;;;;;;;;;;;;;4993941;28;19924;-70
2022/04/02 13:14:48;;;;;;;;;;;;;;;;;;4996171;28;19994;-70
2022/04/02 13:17:14;;;;;;;;;;;;;;;;;;5002057;28;20016;-70
2022/04/02 13:22:25;;;;;;;;;;;;;;;;;;5016172;28;20590;-70
2022/04/02 13:24:51;;;;;;;;;;;;;;;;;;5002499;28;19920;-70
2022/04/02 13:27:17;;;;;;;;;;;;;;;;;;5013505;28;20450;-70
2022/04/02 13:29:43;;;;;;;;;;;;;;;;;;5020452;28;20019;-70
2022/04/02 13:32:09;;;;;;;;;;;;;;;;;;5016762;28;19920;-69
2022/04/02 13:34:35;;;;;;;;;;;;;;;;;;5002392;28;20603;-70
2022/04/02 13:37:01;;;;;;;;;;;;;;;;;;4997854;28;19921;-70
2022/04/02 13:39:27;;;;;;;;;;;;;;;;;;5021623;28;20445;-70
2022/04/02 13:41:53;;;;;;;;;;;;;;;;;;5018336;28;19923;-70
2022/04/02 13:44:19;;;;;;;;;;;;;;;;;;5013481;28;19916;-70
2022/04/02 13:46:45;;;;;;;;;;;;;;;;;;5014746;28;19921;-70
2022/04/02 13:49:11;;;;;;;;;;;;;;;;;;4993050;28;19928;-70
2022/04/02 13:51:40;;;;;;;;;;;;;;;;;;5016732;28;20434;-70
2022/04/02 13:54:06;;;;;;;;;;;;;;;;;;5000874;28;19921;-66
2022/04/02 13:56:32;;;;;;;;;;;;;;;;;;5012787;28;19924;-70
2022/04/02 13:58:58;;;;;;;;;;;;;;;;;;5005125;28;19970;-69
2022/04/02 14:01:24;;;;;;;;;;;;;;;;;;5010894;28;19925;-64
2022/04/02 14:03:50;;;;;;;;;;;;;;;;;;5008941;28;20283;-68
2022/04/02 14:06:16;;;;;;;;;;;;;;;;;;5003360;28;19927;-68
2022/04/02 14:08:42;;;;;;;;;;;;;;;;;;5009837;28;19921;-69
2022/04/02 14:11:08;;;;;;;;;;;;;;;;;;5005714;28;20487;-69
2022/04/02 14:13:34;;;;;;;;;;;;;;;;;;5015160;28;20055;-69
2022/04/02 14:16:00;;;;;;;;;;;;;;;;;;4998990;28;19952;-69
2022/04/02 14:18:26;;;;;;;;;;;;;;;;;;5013066;28;19929;-68
2022/04/02 14:20:52;;;;;;;;;;;;;;;;;;5011426;28;19922;-67
2022/04/02 14:23:18;;;;;;;;;;;;;;;;;;5007036;28;19923;-67
2022/04/02 14:25:44;;;;;;;;;;;;;;;;;;5014401;28;19916;-67
2022/04/02 14:28:10;;;;;;;;;;;;;;;;;;5004510;28;20047;-68
2022/04/02 14:30:36;;;;;;;;;;;;;;;;;;5008983;28;20459;-67
2022/04/02 14:33:02;;;;;;;;;;;;;;;;;;5002073;28;19987;-67
2022/04/02 14:35:28;;;;;;;;;;;;;;;;;;5004214;28;20278;-68
2022/04/02 14:37:54;;;;;;;;;;;;;;;;;;5016746;28;19971;-67
2022/04/02 14:40:20;;;;;;;;;;;;;;;;;;5017233;28;20030;-67
2022/04/02 14:42:46;;;;;;;;;;;;;;;;;;5000409;28;20079;-66
2022/04/02 14:45:12;;;;;;;;;;;;;;;;;;5003089;28;20772;-68
2022/04/02 14:47:38;;;;;;;;;;;;;;;;;;5013437;28;19924;-68
2022/04/02 14:50:04;;;;;;;;;;;;;;;;;;5002677;28;19920;-68
2022/04/02 14:52:30;;;;;;;;;;;;;;;;;;5016528;28;20393;-69
2022/04/02 14:54:56;;;;;;;;;;;;;;;;;;5022839;28;20014;-69
2022/04/02 14:57:22;;;;;;;;;;;;;;;;;;5011319;28;20027;-68
2022/04/02 14:59:48;;;;;;;;;;;;;;;;;;5009120;28;19917;-67
2022/04/02 15:02:14;;;;;;;;;;;;;;;;;;5009319;28;19928;-67
2022/04/02 15:04:40;;;;;;;;;;;;;;;;;;5005375;28;20364;-67
2022/04/02 15:07:07;;;;;;;;;;;;;;;;;;5006220;28;19921;-67
2022/04/02 15:09:33;;;;;;;;;;;;;;;;;;5008733;28;19960;-68
2022/04/02 15:11:59;;;;;;;;;;;;;;;;;;5013789;28;20462;-68
2022/04/02 15:14:25;;;;;;;;;;;;;;;;;;5009324;28;20120;-68
2022/04/02 15:16:51;;;;;;;;;;;;;;;;;;5014679;28;20586;-68
2022/04/02 15:19:17;;;;;;;;;;;;;;;;;;5007864;28;19947;-68
2022/04/02 15:21:43;;;;;;;;;;;;;;;;;;5011513;28;20458;-68
2022/04/02 15:24:09;;;;;;;;;;;;;;;;;;5008835;28;19924;-68
2022/04/02 15:26:35;;;;;;;;;;;;;;;;;;5012311;28;20038;-68
2022/04/02 15:29:01;;;;;;;;;;;;;;;;;;5004468;28;19928;-70
2022/04/02 15:31:27;;;;;;;;;;;;;;;;;;4995394;28;20508;-70
2022/04/02 15:33:53;;;;;;;;;;;;;;;;;;5009499;28;19925;-72
2022/04/02 15:36:19;;;;;;;;;;;;;;;;;;4992516;28;19940;-70
2022/04/02 15:38:45;;;;;;;;;;;;;;;;;;5014954;28;20728;-69
2022/04/02 15:41:12;;;;;;;;;;;;;;;;;;4993524;28;20546;-68
2022/04/02 15:43:38;;;;;;;;;;;;;;;;;;5011993;28;19924;-67
2022/04/02 15:46:04;;;;;;;;;;;;;;;;;;5006501;28;20348;-66
2022/04/02 15:48:30;;;;;;;;;;;;;;;;;;4993749;28;19917;-66
2022/04/02 15:50:56;;;;;;;;;;;;;;;;;;5015243;28;20466;-67
2022/04/02 15:53:22;;;;;;;;;;;;;;;;;;4991583;28;19917;-67
2022/04/02 15:55:53;;;;;;;;;;;;;;;;;;5011948;28;19927;-66
2022/04/02 15:58:19;;;;;;;;;;;;;;;;;;5012346;28;20611;-67
2022/04/02 16:00:45;;;;;;;;;;;;;;;;;;5001258;28;20131;-68
2022/04/02 16:03:11;;;;;;;;;;;;;;;;;;5009195;28;19922;-67
2022/04/02 16:05:37;;;;;;;;;;;;;;;;;;5009295;28;19995;-69
2022/04/02 16:08:03;;;;;;;;;;;;;;;;;;5012806;28;20440;-68
2022/04/02 16:10:29;;;;;;;;;;;;;;;;;;5014910;28;20016;-68
2022/04/02 16:12:55;;;;;;;;;;;;;;;;;;5013243;28;20237;-67
2022/04/02 16:15:27;;;;;;;;;;;;;;;;;;5006236;28;20681;-67
2022/04/02 16:17:53;;;;;;;;;;;;;;;;;;5011927;28;19925;-66
2022/04/02 16:20:19;;;;;;;;;;;;;;;;;;5007687;28;19923;-70
2022/04/02 16:22:45;;;;;;;;;;;;;;;;;;4989572;28;19920;-68
2022/04/02 16:25:11;;;;;;;;;;;;;;;;;;5003274;28;19978;-67
2022/04/02 16:27:39;;;;;;;;;;;;;;;;;;5003941;28;20304;-66
2022/04/02 16:30:10;;;;;;;;;;;;;;;;;;5003433;28;19960;-67
2022/04/02 16:32:37;;;;;;;;;;;;;;;;;;5007563;28;20619;-68
2022/04/02 16:35:03;;;;;;;;;;;;;;;;;;5004156;28;19923;-70
2022/04/02 16:37:31;;;;;;;;;;;;;;;;;;4992218;28;20393;-67
2022/04/02 16:39:58;;;;;;;;;;;;;;;;;;5012096;28;19924;-70
2022/04/02 16:42:24;;;;;;;;;;;;;;;;;;5006693;28;19917;-70